Main page
METAR-TAF:

METAR-TAF

Airports :

Kapalua Airport

Lahaina, Hawaii, United States

latitude: 21-01N, longitude: 156-38W, elevation: 40 m

METAR: missing

Time: 06:41 (16:41 UTC)

Forecast

The report was made 17 hours and 7 minutes ago, at 23:34 UTC
Forecast valid from 21 at 00 UTC to 21 at 24 UTC
Wind 20 kt from the East/Northeast with gusts up to 32 kt
Visibility: 10 km
Few clouds at a height of 3000 ft
Scattered clouds at a height of 5000 ft
From 21 at 0800 UTC
Wind 13 kt from the East/Northeast with gusts up to 22 kt
Visibility: 10 km
Few clouds at a height of 3000 ft
Broken clouds at a height of 5000 ft
showers in vicinity,

TAF: PHJH 202334Z 2100/2124 06020G32KT P6SM FEW030 SCT050 FM210800 06013G22KT P6SM VCSH FEW030 BKN050

Weather observations and forecasts of more than 4000 airports (METAR and TAF reports).

The available stations are represented by yellow and red dots on the map.

Hover mouse over dot to see the name of the station.

Then click to see weather observations and forecasts.

To change the map : click on the green buttons with a black cross to zoom in, on the green button with a dash to zoom out, or on the green arrows for adjacent maps.


METAR-TAF: